Time;durP1;ratioP1;P1;durP2;ratioP2;P2;SDS_P1;SDS_P2;PMS_P1;PMS_P2;Temp;Humidity;BMP_temperature;BMP_pressure;BME280_temperature;BME280_humidity;BME280_pressure;Samples;Min_cycle;Max_cycle;Signal;HPM_P1;HPM_P2
2022/03/23 00:03:11;;;;;;;110.63;62.88;;;;;;;5.56;85.18;102419.06;10546411;28;20404;-65
2022/03/23 00:08:14;;;;;;;101.63;59.22;;;;;;;5.52;84.95;102418.03;10546291;28;20388;-63
2022/03/23 00:13:17;;;;;;;110.82;62.28;;;;;;;5.40;86.06;102432.09;10546390;28;20483;-66
2022/03/23 00:18:22;;;;;;;101.70;59.60;;;;;;;5.37;84.14;102421.63;10545833;28;20686;-66
2022/03/23 00:23:25;;;;;;;107.85;61.13;;;;;;;5.27;86.29;102419.47;10545640;28;20849;-67
2022/03/23 00:28:29;;;;;;;108.87;60.53;;;;;;;5.25;86.97;102418.53;10545551;28;20388;-65
2022/03/23 00:33:37;;;;;;;103.68;61.78;;;;;;;5.23;87.42;102415.03;10545184;28;20412;-64
2022/03/23 00:38:40;;;;;;;108.53;62.72;;;;;;;5.17;85.75;102415.63;10544716;28;20434;-65
2022/03/23 00:43:44;;;;;;;109.60;62.92;;;;;;;5.08;86.99;102412.66;10544784;28;20392;-67
2022/03/23 00:48:48;;;;;;;112.50;63.20;;;;;;;5.00;87.88;102413.13;10544984;28;20384;-66
2022/03/23 00:53:51;;;;;;;109.75;63.35;;;;;;;4.98;88.45;102405.34;10544582;28;20388;-64
2022/03/23 00:58:55;;;;;;;113.27;63.63;;;;;;;4.89;86.24;102393.72;10543072;28;20483;-66
2022/03/23 01:03:59;;;;;;;111.10;63.10;;;;;;;4.84;87.08;102401.25;10543870;28;20401;-66
2022/03/23 01:09:03;;;;;;;100.23;52.10;;;;;;;4.73;88.18;102394.72;10546789;28;20584;-66
2022/03/23 01:14:07;;;;;;;104.00;50.07;;;;;;;4.69;88.35;102393.69;10546608;28;20229;-67
2022/03/23 01:19:13;;;;;;;101.07;48.07;;;;;;;4.56;88.22;102393.94;10546402;28;20231;-67
2022/03/23 01:24:16;;;;;;;88.10;43.40;;;;;;;4.45;88.65;102389.13;10545899;28;20219;-67
2022/03/23 01:29:20;;;;;;;96.70;53.77;;;;;;;4.47;88.49;102388.38;10543128;28;20471;-65
2022/03/23 01:34:25;;;;;;;105.65;57.28;;;;;;;4.51;89.90;102385.16;10543089;28;20392;-65
2022/03/23 01:39:28;;;;;;;104.30;59.27;;;;;;;4.49;88.82;102386.75;10542445;28;20791;-65
2022/03/23 01:44:32;;;;;;;100.70;58.87;;;;;;;4.48;89.52;102387.59;10542291;28;20430;-65
2022/03/23 01:49:37;;;;;;;102.13;58.17;;;;;;;4.42;90.39;102378.69;10543097;28;20406;-66
2022/03/23 01:54:42;;;;;;;103.50;59.92;;;;;;;4.40;91.30;102380.31;10542177;28;20398;-66
2022/03/23 01:59:45;;;;;;;102.25;60.08;;;;;;;4.22;91.09;102379.44;10542509;28;20396;-66
2022/03/23 02:04:50;;;;;;;104.82;60.00;;;;;;;4.09;92.40;102370.25;10541634;28;20404;-67
2022/03/23 02:09:54;;;;;;;98.37;58.87;;;;;;;4.10;93.55;102369.47;10541040;28;20396;-65
2022/03/23 02:14:58;;;;;;;103.60;60.78;;;;;;;4.12;94.46;102361.84;10541378;28;20849;-70
2022/03/23 02:20:03;;;;;;;106.47;61.13;;;;;;;4.09;95.47;102362.53;10541242;28;20389;-68
2022/03/23 02:25:09;;;;;;;105.03;63.47;;;;;;;4.02;96.62;102360.50;10541036;28;20465;-69
2022/03/23 02:30:13;;;;;;;111.72;64.35;;;;;;;3.94;97.97;102359.25;10540629;28;20921;-66
2022/03/23 02:35:17;;;;;;;114.67;65.27;;;;;;;3.85;99.05;102369.06;10540560;28;20487;-68
2022/03/23 02:40:22;;;;;;;117.47;65.95;;;;;;;3.79;99.69;102363.66;10540318;28;20483;-66
2022/03/23 02:45:25;;;;;;;118.30;67.33;;;;;;;3.72;100.00;102363.25;10540590;28;20741;-68
2022/03/23 02:50:29;;;;;;;122.47;67.68;;;;;;;3.66;100.00;102361.25;10540222;28;20392;-67
2022/03/23 03:06:31;;;;;;;120.57;70.47;;;;;;;3.46;100.00;102354.25;10539620;28;20476;-68
2022/03/23 03:11:36;;;;;;;124.18;71.68;;;;;;;3.40;100.00;102346.25;10539549;28;20719;-67
2022/03/23 03:16:40;;;;;;;133.95;72.75;;;;;;;3.36;100.00;102344.34;10539307;28;20852;-68
2022/03/23 03:21:43;;;;;;;124.95;70.55;;;;;;;3.35;100.00;102332.31;10543970;28;20408;-67
2022/03/23 03:26:48;;;;;;;124.05;73.43;;;;;;;3.29;100.00;102325.19;10548042;28;20513;-67
2022/03/23 03:31:51;;;;;;;127.10;74.33;;;;;;;3.24;100.00;102315.50;10547862;28;20388;-68
2022/03/23 03:36:55;;;;;;;127.40;74.88;;;;;;;3.09;100.00;102304.47;10547666;28;20488;-68
2022/03/23 03:41:59;;;;;;;126.03;74.82;;;;;;;3.16;100.00;102303.94;10547458;28;20399;-68
2022/03/23 03:47:03;;;;;;;127.80;75.03;;;;;;;3.23;100.00;102303.47;10547238;28;20487;-65
2022/03/23 03:52:08;;;;;;;117.03;72.40;;;;;;;3.19;100.00;102304.13;10547155;28;20721;-67
2022/03/23 03:57:13;;;;;;;116.32;68.93;;;;;;;3.15;100.00;102309.91;10546906;28;20396;-65
2022/03/23 04:02:16;;;;;;;116.37;68.10;;;;;;;3.17;100.00;102308.31;10546381;28;20392;-64
2022/03/23 04:07:20;;;;;;;119.15;70.40;;;;;;;3.16;100.00;102309.09;10546323;28;20410;-66
2022/03/23 04:12:24;;;;;;;115.65;69.00;;;;;;;3.13;100.00;102307.25;10546281;28;20400;-66
2022/03/23 04:17:27;;;;;;;117.43;70.13;;;;;;;3.08;100.00;102305.25;10546289;28;20396;-65
2022/03/23 04:22:31;;;;;;;120.68;72.53;;;;;;;3.03;100.00;102309.28;10545842;28;20404;-65
2022/03/23 04:27:44;;;;;;;117.53;72.47;;;;;;;3.00;100.00;102299.72;10545889;28;20415;-63
2022/03/23 04:32:49;;;;;;;119.00;71.90;;;;;;;3.02;100.00;102300.69;10545661;28;20396;-62
2022/03/23 04:37:52;;;;;;;123.93;75.83;;;;;;;2.92;100.00;102306.16;10545284;28;20936;-66
2022/03/23 04:42:57;;;;;;;128.82;77.75;;;;;;;2.90;100.00;102304.34;10545211;28;20842;-70
2022/03/23 04:48:00;;;;;;;128.13;80.75;;;;;;;2.93;100.00;102295.13;10544686;28;20407;-63
2022/03/23 04:53:04;;;;;;;137.45;83.68;;;;;;;2.94;100.00;102291.75;10544400;28;20388;-65
2022/03/23 04:58:08;;;;;;;134.07;84.80;;;;;;;2.81;100.00;102303.84;10544288;28;20478;-66
2022/03/23 05:03:13;;;;;;;139.50;83.47;;;;;;;2.82;100.00;102303.03;10544088;28;20854;-64
2022/03/23 05:08:17;;;;;;;136.48;86.97;;;;;;;2.86;100.00;102299.84;10543864;28;20392;-62
2022/03/23 05:13:21;;;;;;;136.80;86.15;;;;;;;2.94;100.00;102284.03;10543467;28;20830;-69
2022/03/23 05:18:25;;;;;;;140.67;87.50;;;;;;;3.02;100.00;102298.13;10543281;28;20396;-61
2022/03/23 05:23:29;;;;;;;142.13;86.97;;;;;;;3.09;100.00;102284.81;10543350;28;20453;-64
2022/03/23 05:28:33;;;;;;;142.77;88.00;;;;;;;3.17;100.00;102293.81;10543134;28;20846;-66
2022/03/23 05:33:37;;;;;;;145.10;82.70;;;;;;;3.26;100.00;102283.13;10542631;28;20400;-65
2022/03/23 05:38:40;;;;;;;136.73;81.30;;;;;;;3.35;100.00;102291.25;10542483;28;20418;-65
2022/03/23 05:43:45;;;;;;;133.77;81.67;;;;;;;3.43;100.00;102289.97;10542344;28;20397;-68
2022/03/23 05:48:48;;;;;;;131.57;80.35;;;;;;;3.50;100.00;102286.91;10542205;28;20837;-64
2022/03/23 05:53:51;;;;;;;137.20;81.35;;;;;;;3.60;100.00;102276.25;10541788;28;20402;-69
2022/03/23 05:58:56;;;;;;;141.07;80.93;;;;;;;3.74;100.00;102272.69;10542164;28;20713;-65
2022/03/23 06:03:59;;;;;;;133.93;82.60;;;;;;;3.86;100.00;102277.50;10541375;28;20377;-66
2022/03/23 06:09:03;;;;;;;139.77;86.32;;;;;;;3.94;98.80;102269.34;10541318;28;20404;-66
2022/03/23 06:14:07;;;;;;;148.45;90.85;;;;;;;4.12;97.18;102269.34;10540884;28;20389;-67
2022/03/23 06:19:13;;;;;;;147.48;90.70;;;;;;;4.29;97.09;102269.31;10541095;28;20408;-68
2022/03/23 06:24:17;;;;;;;155.25;91.03;;;;;;;4.47;96.37;102264.97;10541265;28;20488;-68
2022/03/23 06:29:21;;;;;;;147.20;90.82;;;;;;;4.65;94.64;102259.78;10541096;28;20397;-66
2022/03/23 06:34:27;;;;;;;139.83;88.80;;;;;;;4.74;93.77;102250.75;10540911;28;20420;-63
2022/03/23 06:39:33;;;;;;;146.27;87.32;;;;;;;4.78;92.38;102251.78;10540136;28;20404;-66
2022/03/23 06:44:39;;;;;;;153.73;89.65;;;;;;;4.89;91.83;102258.28;10540082;28;20841;-64
2022/03/23 06:49:42;;;;;;;149.80;88.85;;;;;;;5.12;91.78;102259.25;10540321;28;20404;-65
2022/03/23 06:54:45;;;;;;;148.70;85.28;;;;;;;5.27;90.14;102241.88;10539166;28;20834;-63
2022/03/23 06:59:50;;;;;;;128.68;79.88;;;;;;;5.46;88.62;102246.97;10539589;28;20815;-62
2022/03/23 07:04:53;;;;;;;123.67;77.47;;;;;;;5.67;87.77;102248.72;10539131;28;20408;-65
2022/03/23 07:09:56;;;;;;;116.80;74.83;;;;;;;5.92;86.71;102247.13;10539246;28;20410;-63
2022/03/23 07:15:01;;;;;;;125.03;73.00;;;;;;;6.12;84.81;102241.94;10539681;28;20844;-66
2022/03/23 07:20:05;;;;;;;115.43;70.28;;;;;;;6.37;83.13;102231.69;10539413;28;20399;-65
2022/03/23 07:25:09;;;;;;;108.63;66.70;;;;;;;6.60;82.12;102224.78;10535756;28;20408;-65
2022/03/23 07:30:14;;;;;;;100.90;60.05;;;;;;;6.84;80.10;102212.75;10539034;28;20392;-66
2022/03/23 07:35:17;;;;;;;90.33;55.67;;;;;;;7.12;77.51;102218.03;10538784;28;20705;-66
2022/03/23 07:40:21;;;;;;;91.90;55.97;;;;;;;7.35;76.17;102211.91;10538579;28;20396;-67
2022/03/23 07:45:26;;;;;;;86.03;54.97;;;;;;;7.62;74.84;102202.47;10538331;28;20435;-70
2022/03/23 07:50:30;;;;;;;90.83;54.70;;;;;;;7.90;73.37;102201.63;10538764;28;20394;-67
2022/03/23 07:55:33;;;;;;;90.68;55.75;;;;;;;8.14;72.26;102194.59;10538103;28;20396;-65
2022/03/23 08:00:38;;;;;;;92.22;54.55;;;;;;;8.40;71.12;102188.47;10538704;28;20802;-66
2022/03/23 08:05:42;;;;;;;85.57;53.03;;;;;;;8.67;69.67;102176.28;10539230;28;20501;-65
2022/03/23 08:10:48;;;;;;;88.00;51.10;;;;;;;9.00;67.77;102169.38;10546174;28;20903;-67
2022/03/23 08:15:52;;;;;;;83.28;48.47;;;;;;;9.29;66.49;102165.81;10545608;28;20844;-67
2022/03/23 08:20:56;;;;;;;60.63;36.47;;;;;;;9.71;62.91;102168.50;10545885;28;20388;-65
2022/03/23 08:25:59;;;;;;;49.45;30.75;;;;;;;10.09;58.98;102162.47;10545093;28;20403;-70
2022/03/23 08:31:04;;;;;;;47.85;29.35;;;;;;;10.43;57.82;102156.22;10541659;28;20392;-65
2022/03/23 08:36:10;;;;;;;46.08;28.15;;;;;;;10.68;55.96;102147.16;10541836;28;20999;-63
2022/03/23 08:41:13;;;;;;;47.72;28.23;;;;;;;10.94;54.63;102153.69;10540532;28;20400;-64
2022/03/23 08:46:19;;;;;;;47.40;28.73;;;;;;;11.22;53.78;102151.56;10541355;28;20404;-67
2022/03/23 08:51:23;;;;;;;52.30;29.05;;;;;;;11.41;52.71;102140.59;10541571;28;20484;-68
2022/03/23 08:56:26;;;;;;;50.27;29.57;;;;;;;11.67;52.98;102127.13;10541284;28;20403;-67
2022/03/23 09:01:31;;;;;;;47.78;28.58;;;;;;;11.99;52.23;102133.66;10540730;28;20393;-70
2022/03/23 09:06:34;;;;;;;46.97;27.83;;;;;;;12.23;50.68;102121.81;10540345;28;20463;-67
2022/03/23 09:11:38;;;;;;;45.03;26.92;;;;;;;12.64;47.77;102114.41;10540668;28;20415;-66
2022/03/23 09:16:43;;;;;;;44.47;27.53;;;;;;;13.03;47.24;102106.13;10539551;28;20399;-68
2022/03/23 09:21:46;;;;;;;40.97;25.10;;;;;;;13.35;46.13;102097.66;10540115;28;20391;-66
2022/03/23 09:26:50;;;;;;;41.38;25.35;;;;;;;14.07;43.13;102091.03;10539724;28;20412;-67
2022/03/23 09:31:55;;;;;;;39.87;23.97;;;;;;;14.82;39.84;102088.63;10539936;28;20416;-69
2022/03/23 09:42:21;;;;;;;36.40;23.83;;;;;;;15.90;38.23;102062.25;10539426;28;20390;-66
2022/03/23 09:47:25;;;;;;;35.70;23.10;;;;;;;16.54;36.03;102057.53;10538984;28;20476;-67
2022/03/23 09:52:29;;;;;;;34.25;22.30;;;;;;;17.28;34.81;102049.84;10539101;28;20733;-69
2022/03/23 09:57:32;;;;;;;35.58;22.42;;;;;;;17.88;32.96;102045.66;10538654;28;20402;-65
2022/03/23 10:03:24;;;;;;;34.60;21.35;;;;;;;18.39;33.37;102038.81;10538806;28;20427;-65
2022/03/23 10:09:09;;;;;;;31.07;20.13;;;;;;;19.16;30.51;102013.81;10538056;28;20897;-62
2022/03/23 10:14:52;;;;;;;27.37;19.07;;;;;;;19.85;29.55;102015.06;10540426;28;20714;-68
2022/03/23 10:19:57;;;;;;;25.35;18.95;;;;;;;20.35;28.42;102006.03;10540793;28;20407;-64
2022/03/23 10:25:09;;;;;;;27.83;19.90;;;;;;;20.39;28.58;101998.03;10540976;28;20388;-66
2022/03/23 10:30:14;;;;;;;29.08;18.58;;;;;;;20.92;28.62;101985.22;10540366;28;20415;-64
2022/03/23 10:35:19;;;;;;;28.90;19.05;;;;;;;21.63;28.28;101978.81;10540907;28;20388;-62
2022/03/23 10:40:23;;;;;;;25.85;17.17;;;;;;;21.99;26.70;101964.50;10539905;28;20404;-62
2022/03/23 10:45:31;;;;;;;26.73;16.13;;;;;;;22.56;26.76;101959.13;10540449;28;20384;-63
2022/03/23 10:50:37;;;;;;;23.30;16.52;;;;;;;22.87;25.61;101965.97;10538889;28;20782;-63
2022/03/23 10:55:47;;;;;;;21.63;14.57;;;;;;;22.58;24.50;101952.88;10526938;28;20406;-62
2022/03/23 11:00:53;;;;;;;21.40;14.43;;;;;;;22.74;24.28;101947.91;10537014;28;20726;-63
2022/03/23 11:05:58;;;;;;;20.83;14.67;;;;;;;23.43;25.48;101941.88;10539939;28;20423;-62
2022/03/23 11:16:27;;;;;;;21.15;13.60;;;;;;;24.76;23.20;101918.72;10539564;28;20396;-66
2022/03/23 11:21:32;;;;;;;17.87;12.77;;;;;;;25.22;24.40;101913.06;10537914;28;20388;-62
2022/03/23 11:26:35;;;;;;;17.80;13.00;;;;;;;25.53;21.59;101907.22;10535998;28;20403;-64
2022/03/23 11:31:39;;;;;;;16.17;11.70;;;;;;;25.65;21.51;101902.19;10184415;28;10000533;-63
2022/03/23 11:36:46;;;;;;;17.75;10.95;;;;;;;25.85;21.21;101879.94;10535803;28;20396;-65
2022/03/23 11:41:51;;;;;;;17.08;12.13;;;;;;;26.13;20.59;101873.19;10538479;28;20406;-67
2022/03/23 11:46:59;;;;;;;17.80;12.13;;;;;;;26.37;20.11;101864.91;10544186;28;20427;-66
2022/03/23 11:52:20;;;;;;;18.88;13.93;;;;;;;26.24;20.47;101856.69;10543793;28;20479;-65
2022/03/23 11:57:23;;;;;;;22.47;13.30;;;;;;;26.29;19.96;101848.44;10543355;28;20904;-65
2022/03/23 12:02:40;;;;;;;19.80;13.50;;;;;;;26.34;19.39;101839.28;10543761;28;20487;-66
2022/03/23 12:07:50;;;;;;;17.67;14.20;;;;;;;27.20;19.60;101829.28;10542558;28;20473;-65
2022/03/23 12:12:53;;;;;;;19.63;14.90;;;;;;;27.02;19.32;101827.66;10542710;28;20394;-66
2022/03/23 12:17:59;;;;;;;;;;;;;;;27.43;19.15;101817.38;10544481;28;20483;-64
2022/03/23 12:23:10;;;;;;;;;;;;;;;28.36;19.26;101812.69;10545598;28;20131;-64
2022/03/23 12:28:25;;;;;;;;;;;;;;;28.78;19.01;101803.00;10544649;28;19924;-65
2022/03/23 12:33:30;;;;;;;;;;;;;;;29.42;18.05;101785.41;10545611;28;19920;-66
2022/03/23 12:38:35;;;;;;;;;;;;;;;28.24;19.06;101786.72;10544681;28;19984;-62
2022/03/23 12:43:39;;;;;;;;;;;;;;;27.27;19.49;101780.88;10544415;28;19919;-64
2022/03/23 12:59:36;;;;;;;;;;;;;;;26.99;19.81;101759.34;10545613;28;20350;-66
2022/03/23 13:04:49;;;;;;;;;;;;;;;26.63;19.82;101750.69;10547026;28;20007;-65
2022/03/23 13:09:54;;;;;;;;;;;;;;;26.14;20.22;101743.63;10546639;28;19926;-66
2022/03/23 13:14:57;;;;;;;;;;;;;;;25.80;20.44;101735.63;10546940;28;19926;-66
2022/03/23 13:20:02;;;;;;;;;;;;;;;25.26;20.55;101730.38;10546166;28;19920;-67
2022/03/23 13:25:08;;;;;;;;;;;;;;;25.52;20.44;101722.00;10546533;28;20305;-68
2022/03/23 13:30:13;;;;;;;;;;;;;;;25.42;21.01;101731.38;10545776;28;19920;-66
2022/03/23 13:35:17;;;;;;;;;;;;;;;25.27;21.36;101721.44;10546070;28;20406;-65
2022/03/23 13:40:30;;;;;;;;;;;;;;;24.57;20.72;101716.81;10545336;28;20044;-67
2022/03/23 13:45:36;;;;;;;;;;;;;;;24.28;21.81;101709.28;10545601;28;19920;-66
2022/03/23 13:50:45;;;;;;;25.73;19.33;;;;;;;24.32;22.18;101704.72;10543067;28;20424;-67
2022/03/23 13:55:51;;;;;;;27.13;18.42;;;;;;;23.57;21.56;101704.44;10540766;28;20418;-66
2022/03/23 14:00:56;;;;;;;25.50;17.92;;;;;;;23.12;22.04;101701.03;10542126;28;20488;-67
2022/03/23 14:06:08;;;;;;;23.00;14.40;;;;;;;22.88;21.63;101691.41;10542894;28;20686;-67
2022/03/23 14:11:18;;;;;;;20.48;14.23;;;;;;;22.74;21.97;101677.84;10541056;28;20306;-65
2022/03/23 14:16:23;;;;;;;20.33;14.07;;;;;;;22.94;22.76;101669.97;10188950;28;10000245;-66
2022/03/23 14:21:26;;;;;;;21.40;12.07;;;;;;;22.90;23.55;101663.94;10540404;28;20222;-64
2022/03/23 14:26:33;;;;;;;80.70;60.08;;;;;;;22.95;22.61;101657.59;10540223;28;20215;-68
2022/03/23 14:31:43;;;;;;;18.00;12.68;;;;;;;22.41;22.58;101642.06;10540029;28;20227;-62
2022/03/23 14:36:46;;;;;;;18.77;11.52;;;;;;;22.22;21.82;101639.25;10522364;28;20239;-66
2022/03/23 14:41:58;;;;;;;18.73;10.38;;;;;;;21.64;22.70;101642.25;10510000;28;20317;-63
2022/03/23 14:47:02;;;;;;;16.95;10.23;;;;;;;21.38;22.62;101635.22;10536978;28;20212;-63
2022/03/23 14:52:18;;;;;;;19.35;11.27;;;;;;;20.84;23.65;101626.47;10538091;28;20234;-65
2022/03/23 14:57:22;;;;;;;16.50;10.23;;;;;;;20.55;23.71;101621.22;10533291;28;20231;-65
2022/03/23 15:02:29;;;;;;;17.02;9.77;;;;;;;20.21;23.69;101617.84;10533596;28;20215;-65
2022/03/23 15:18:15;;;;;;;13.90;8.40;;;;;;;19.71;24.31;101600.81;10535821;28;20211;-61
2022/03/23 15:23:18;;;;;;;17.75;9.13;;;;;;;19.72;24.21;101594.66;10535240;28;20705;-62
2022/03/23 15:28:23;;;;;;;20.45;10.10;;;;;;;19.63;24.72;101588.78;10537289;28;20598;-64
2022/03/23 15:33:27;;;;;;;20.00;10.77;;;;;;;19.25;25.89;101589.78;10538651;28;20254;-64
2022/03/23 15:38:31;;;;;;;20.60;11.43;;;;;;;19.29;26.87;101591.44;10537083;28;20235;-65
2022/03/23 15:43:37;;;;;;;19.13;12.47;;;;;;;19.98;27.68;101584.25;10535317;28;20298;-62
2022/03/23 15:48:43;;;;;;;25.00;12.07;;;;;;;20.33;26.77;101580.56;10522742;28;20223;-64
2022/03/23 15:53:46;;;;;;;25.63;14.25;;;;;;;19.74;27.83;101590.22;10537313;28;20568;-63
2022/03/23 15:58:52;;;;;;;28.97;15.10;;;;;;;19.47;28.12;101586.56;10536649;28;20202;-62
2022/03/23 16:03:55;;;;;;;24.80;13.68;;;;;;;19.23;28.73;101584.53;10537504;28;20245;-62
2022/03/23 16:08:59;;;;;;;30.23;14.73;;;;;;;18.78;29.70;101587.44;10536856;28;20207;-63
2022/03/23 16:14:03;;;;;;;27.53;14.33;;;;;;;18.52;30.64;101589.84;10534631;28;20196;-63
2022/03/23 16:19:07;;;;;;;28.97;17.20;;;;;;;18.23;30.68;101593.94;10536419;28;20501;-63
2022/03/23 16:24:10;;;;;;;38.10;22.67;;;;;;;18.12;31.41;101595.94;10531322;28;20763;-65
2022/03/23 16:29:15;;;;;;;32.13;16.95;;;;;;;17.66;32.51;101597.75;10541569;28;20705;-64
2022/03/23 16:34:19;;;;;;;29.27;17.08;;;;;;;17.36;32.95;101594.81;10544572;28;20263;-65
2022/03/23 16:39:23;;;;;;;36.80;17.27;;;;;;;17.06;33.82;101604.97;10543415;28;20277;-66
2022/03/23 16:44:29;;;;;;;33.73;18.73;;;;;;;16.76;33.95;101597.56;10542581;28;20294;-62
2022/03/23 16:49:33;;;;;;;36.67;17.83;;;;;;;16.43;34.21;101597.19;10542828;28;20683;-60
2022/03/23 16:54:36;;;;;;;31.53;18.10;;;;;;;16.19;34.64;101594.00;10543173;28;20693;-63
2022/03/23 16:59:41;;;;;;;35.70;21.73;;;;;;;16.11;34.81;101602.84;10540077;28;20403;-63
2022/03/23 17:15:34;;;;;;;50.53;23.03;;;;;;;15.40;38.27;101611.50;10543047;28;20223;-64
2022/03/23 17:20:38;;;;;;;;;;;;;;;15.10;39.39;101603.03;10543841;28;20044;-65
2022/03/23 17:25:42;;;;;;;48.47;24.73;;;;;;;14.98;40.72;101612.72;10539381;28;20404;-64
2022/03/23 17:30:47;;;;;;;50.00;24.25;;;;;;;14.69;40.08;101603.34;10535322;28;20918;-66
2022/03/23 17:35:50;;;;;;;40.70;23.08;;;;;;;14.51;40.48;101612.16;10533646;28;20385;-65
2022/03/23 17:40:53;;;;;;;35.33;20.73;;;;;;;14.54;38.31;101617.41;10536995;28;20414;-63
2022/03/23 17:46:01;;;;;;;38.07;19.83;;;;;;;14.76;37.11;101631.19;10541559;28;20219;-62
2022/03/23 17:51:05;;;;;;;40.33;19.23;;;;;;;14.67;36.78;101632.09;10541632;28;20266;-64
2022/03/23 17:56:08;;;;;;;38.97;19.37;;;;;;;14.73;36.69;101631.22;10539259;28;20542;-63
2022/03/23 18:01:14;;;;;;;33.73;18.57;;;;;;;14.61;36.31;101634.78;10541299;28;20459;-64
2022/03/23 18:06:20;;;;;;;29.40;16.60;;;;;;;14.52;36.55;101637.44;10540775;28;20234;-63
2022/03/23 18:11:24;;;;;;;32.87;16.60;;;;;;;14.40;36.26;101647.06;10498883;28;20215;-62
2022/03/23 18:16:29;;;;;;;32.53;18.70;;;;;;;14.29;37.25;101654.97;10534739;28;20408;-63
2022/03/23 18:21:33;;;;;;;31.90;19.33;;;;;;;14.24;36.44;101647.97;10537783;28;20406;-64
2022/03/23 18:26:37;;;;;;;34.50;20.80;;;;;;;14.06;37.16;101646.34;10536186;28;20423;-64
2022/03/23 18:31:43;;;;;;;36.73;21.07;;;;;;;13.93;37.36;101646.38;10536664;28;20408;-64
2022/03/23 18:36:47;;;;;;;36.77;21.50;;;;;;;13.73;37.78;101656.88;10536838;28;20794;-63
2022/03/23 18:41:50;;;;;;;38.20;22.80;;;;;;;13.60;37.58;101650.81;10537098;28;20380;-65
2022/03/23 18:46:55;;;;;;;34.37;21.77;;;;;;;13.46;38.33;101660.38;10537268;28;20411;-64
2022/03/23 18:52:08;;;;;;;40.72;22.50;;;;;;;13.29;38.21;101656.03;10536810;28;20404;-65
2022/03/23 18:57:11;;;;;;;39.47;22.75;;;;;;;13.18;38.15;101663.88;10536909;28;20502;-66
2022/03/23 19:02:16;;;;;;;36.05;21.92;;;;;;;13.04;38.81;101659.53;10536376;28;20400;-63
2022/03/23 19:07:23;;;;;;;53.22;33.35;;;;;;;12.95;38.84;101669.91;10536604;28;20938;-66
2022/03/23 19:12:27;;;;;;;31.10;17.97;;;;;;;12.74;38.94;101669.00;10539281;28;20227;-66
2022/03/23 19:17:32;;;;;;;29.27;16.83;;;;;;;12.59;38.75;101675.91;10538084;28;20559;-65
2022/03/23 19:22:35;;;;;;;28.50;15.73;;;;;;;12.42;38.95;101685.41;10539382;28;20227;-65
2022/03/23 19:27:39;;;;;;;31.87;15.07;;;;;;;12.11;41.54;101681.81;10538782;28;20214;-63
2022/03/23 19:32:43;;;;;;;32.03;17.93;;;;;;;11.88;41.33;101688.63;10535401;28;20460;-65
2022/03/23 19:37:47;;;;;;;35.40;17.47;;;;;;;11.98;39.46;101692.13;10538388;28;20247;-66
2022/03/23 19:42:50;;;;;;;28.90;16.07;;;;;;;11.91;39.82;101698.19;10538532;28;20230;-61
2022/03/23 19:47:55;;;;;;;29.87;15.80;;;;;;;11.82;39.72;101692.91;10538278;28;20230;-63
2022/03/23 19:52:58;;;;;;;26.33;14.13;;;;;;;11.76;39.32;101698.94;10538955;28;20238;-63
2022/03/23 19:58:02;;;;;;;32.33;15.87;;;;;;;11.68;39.03;101700.63;10538290;28;20219;-62
2022/03/23 20:03:07;;;;;;;35.07;14.60;;;;;;;11.46;39.54;101704.75;10541352;28;20224;-62
2022/03/23 20:08:11;;;;;;;29.17;16.23;;;;;;;11.39;39.70;101712.50;10546201;28;20248;-64
2022/03/23 20:13:14;;;;;;;31.30;17.23;;;;;;;11.25;39.48;101704.56;10550264;28;20215;-64
2022/03/23 20:18:18;;;;;;;31.50;15.77;;;;;;;11.16;40.20;101703.63;10587577;28;20215;-62
2022/03/23 20:23:25;;;;;;;31.37;16.10;;;;;;;11.03;41.65;101700.06;10587794;28;20214;-66
2022/03/23 20:28:29;;;;;;;30.70;15.07;;;;;;;10.90;42.70;101711.19;10587808;28;20223;-71
2022/03/23 20:33:33;;;;;;;27.50;14.53;;;;;;;10.78;41.49;101708.47;10589072;28;20219;-71
2022/03/23 20:38:37;;;;;;;37.97;16.07;;;;;;;10.57;43.17;101712.53;10590523;28;20223;-73
2022/03/23 20:43:41;;;;;;;29.27;16.40;;;;;;;10.42;44.28;101711.50;10590917;28;20242;-73
2022/03/23 20:48:47;;;;;;;37.55;18.75;;;;;;;10.55;42.72;101717.72;10554944;28;20396;-72
2022/03/23 20:53:51;;;;;;;33.15;18.80;;;;;;;10.47;43.56;101714.16;10546119;28;20397;-72
2022/03/23 21:04:25;;;;;;;32.47;19.50;;;;;;;10.25;42.99;101720.78;9359251;23;10002677;-72
2022/03/23 21:09:29;;;;;;;31.80;19.83;;;;;;;10.10;42.86;101722.31;10294137;28;20418;-72
2022/03/23 21:14:33;;;;;;;32.70;18.52;;;;;;;9.93;44.73;101731.56;10292019;28;20792;-72
2022/03/23 21:19:38;;;;;;;29.42;18.52;;;;;;;9.82;43.57;101736.56;10292709;28;20416;-74
2022/03/23 21:24:41;;;;;;;33.25;19.20;;;;;;;9.77;44.11;101740.81;10292880;28;20517;-72
2022/03/23 21:29:45;;;;;;;31.00;19.13;;;;;;;9.66;43.99;101738.91;10294080;28;20414;-73
2022/03/23 21:34:50;;;;;;;31.83;18.60;;;;;;;9.61;43.83;101744.00;10292332;28;20494;-73
2022/03/23 21:39:53;;;;;;;27.30;14.93;;;;;;;9.41;44.27;101747.13;10300707;28;20549;-71
2022/03/23 21:45:00;;;;;;;25.80;15.57;;;;;;;9.31;44.89;101743.53;10294967;28;20192;-70
2022/03/23 21:50:06;;;;;;;32.53;18.90;;;;;;;9.28;44.99;101752.09;10291543;28;20421;-72
2022/03/23 21:55:11;;;;;;;31.92;19.70;;;;;;;9.09;45.83;101760.38;10291077;28;20844;-72
2022/03/23 22:00:17;;;;;;;32.83;18.90;;;;;;;9.04;46.82;101761.19;10291507;28;20876;-72
2022/03/23 22:05:22;;;;;;;32.97;19.67;;;;;;;8.91;47.46;101767.84;10258413;28;20420;-70
2022/03/23 22:10:26;;;;;;;35.20;20.38;;;;;;;8.76;48.55;101762.38;9919645;28;10000771;-70
2022/03/23 22:15:29;;;;;;;34.70;21.40;;;;;;;8.65;49.24;101769.03;10296366;28;20493;-72
2022/03/23 22:20:34;;;;;;;32.92;20.33;;;;;;;8.66;49.23;101769.91;10293665;28;20514;-72
2022/03/23 22:25:39;;;;;;;34.90;22.17;;;;;;;8.44;49.09;101776.34;10293669;28;20408;-71
2022/03/23 22:30:48;;;;;;;35.58;21.58;;;;;;;8.31;50.93;101773.47;10292992;28;20410;-72
2022/03/23 22:35:53;;;;;;;39.72;22.85;;;;;;;8.19;52.46;101774.94;10294391;28;20421;-70
2022/03/23 22:40:56;;;;;;;39.23;23.37;;;;;;;8.09;52.65;101767.78;10292412;28;20413;-70
2022/03/23 22:46:00;;;;;;;36.90;22.98;;;;;;;7.94;53.49;101771.72;10291471;28;20414;-72
2022/03/23 22:51:05;;;;;;;37.80;23.40;;;;;;;7.87;54.01;101769.84;10295230;28;20410;-73
2022/03/23 22:56:08;;;;;;;41.05;25.20;;;;;;;7.74;55.36;101778.16;10294473;28;20403;-71
2022/03/23 23:01:14;;;;;;;39.13;23.50;;;;;;;7.65;55.57;101773.63;10294345;28;20414;-71
2022/03/23 23:06:19;;;;;;;39.95;23.73;;;;;;;7.52;56.65;101786.22;10294271;28;20400;-72
2022/03/23 23:11:23;;;;;;;36.40;23.80;;;;;;;7.41;57.48;101785.94;10294305;28;20422;-69
2022/03/23 23:16:26;;;;;;;37.13;23.43;;;;;;;7.31;58.17;101783.09;10294362;28;20386;-70
2022/03/23 23:21:31;;;;;;;37.65;24.77;;;;;;;7.26;58.45;101777.81;10294338;28;20402;-71
2022/03/23 23:26:34;;;;;;;38.78;24.65;;;;;;;7.09;59.30;101785.94;10296392;28;20402;-69
2022/03/23 23:31:39;;;;;;;39.47;23.80;;;;;;;7.00;60.01;101784.88;10300855;28;20411;-69
2022/03/23 23:36:44;;;;;;;34.97;23.17;;;;;;;6.88;60.28;101791.41;10294898;28;20883;-68
2022/03/23 23:41:48;;;;;;;37.28;22.40;;;;;;;6.74;60.12;101788.44;10301530;28;20398;-68
2022/03/23 23:46:51;;;;;;;35.00;21.92;;;;;;;6.67;60.39;101788.22;10301737;28;20747;-70
2022/03/23 23:51:55;;;;;;;33.67;21.93;;;;;;;6.61;62.02;101788.06;10301420;28;20449;-71
2022/03/23 23:56:59;;;;;;;35.42;21.92;;;;;;;6.53;60.80;101781.78;10301257;28;20404;-75
